Terminal Aerodrome Forecast
Issued by NWS

Current Version | Previous Version | Text Only | Print | Product List | Glossary On
Versions: 1 2 3 4 5 6 7 8 9 10 11 12 13 14 15 16 17 18 19 20 21
000
FTUS41 KPHI 222300
TAFPNE
TAF
KPNE 222320Z 2300/2324 09008KT P6SM SCT025 BKN040
     FM230300 09005KT P6SM OVC025
     FM230900 04006KT 6SM BR OVC010
     FM231300 06009KT P6SM OVC020
     FM231600 05007KT P6SM SCT025 BKN050=

USA.gov is the U.S. government's official web portal to all federal, state and local government web resources and services.